createdAt,value
2023-03-30T00:01:17.091Z,56.65
2023-03-30T00:03:45.903Z,56.57
2023-03-30T00:06:15.218Z,56.30
2023-03-30T00:08:41.577Z,56.51
2023-03-30T00:11:11.770Z,56.95
2023-03-30T00:13:38.565Z,56.27
2023-03-30T00:16:07.955Z,56.31
2023-03-30T00:18:34.584Z,55.49
2023-03-30T00:21:02.813Z,55.21
2023-03-30T00:23:30.179Z,55.34
2023-03-30T00:25:56.773Z,55.28
2023-03-30T00:28:23.201Z,55.11
2023-03-30T00:30:49.844Z,55.47
2023-03-30T00:33:16.233Z,54.85
2023-03-30T00:35:42.726Z,54.05
2023-03-30T00:38:09.158Z,54.84
2023-03-30T00:40:35.730Z,53.98
2023-03-30T00:43:06.585Z,53.36
2023-03-30T00:45:34.274Z,52.64
2023-03-30T00:48:09.199Z,52.01
2023-03-30T00:51:02.553Z,51.24
2023-03-30T00:53:48.627Z,51.16
2023-03-30T00:56:19.342Z,51.20
2023-03-30T00:58:46.635Z,51.10
2023-03-30T01:01:18.737Z,51.28
2023-03-30T01:03:47.987Z,50.85
2023-03-30T01:06:17.770Z,50.73
2023-03-30T01:08:45.113Z,50.36
2023-03-30T01:11:11.487Z,50.81
2023-03-30T01:13:42.146Z,51.01
2023-03-30T01:16:33.032Z,50.80
2023-03-30T01:19:16.372Z,51.36
2023-03-30T01:22:20.273Z,50.84
2023-03-30T01:25:10.541Z,51.00
2023-03-30T01:27:50.314Z,51.59
2023-03-30T01:31:03.459Z,51.48
2023-03-30T01:33:39.182Z,51.33
2023-03-30T01:36:45.683Z,51.20
2023-03-30T01:39:55.667Z,51.49
2023-03-30T01:42:46.158Z,51.66
2023-03-30T01:45:42.409Z,51.48
2023-03-30T01:48:12.845Z,52.25
2023-03-30T01:50:50.729Z,52.49
2023-03-30T01:53:26.657Z,52.67
2023-03-30T01:55:58.131Z,52.87
2023-03-30T01:58:34.071Z,52.17
2023-03-30T02:01:02.588Z,52.65
2023-03-30T02:03:32.980Z,52.86
2023-03-30T02:06:07.065Z,52.80
2023-03-30T02:08:36.763Z,52.63
2023-03-30T02:11:04.080Z,52.78
2023-03-30T02:13:32.697Z,52.64
2023-03-30T02:16:07.183Z,52.38
2023-03-30T02:18:33.566Z,52.56
2023-03-30T02:21:02.199Z,52.46
2023-03-30T02:23:34.842Z,52.39
2023-03-30T02:26:01.906Z,51.74
2023-03-30T02:28:28.343Z,52.06
2023-03-30T02:30:54.749Z,52.49
2023-03-30T02:33:40.102Z,52.34
2023-03-30T02:36:29.774Z,52.31
2023-03-30T02:39:05.622Z,51.81
2023-03-30T02:42:00.384Z,52.08
2023-03-30T02:44:59.860Z,52.46
2023-03-30T02:47:38.090Z,52.35
2023-03-30T02:50:18.050Z,52.33
2023-03-30T02:52:44.821Z,53.39
2023-03-30T02:55:29.070Z,53.49
2023-03-30T02:58:18.420Z,53.30
2023-03-30T03:00:51.256Z,53.18
2023-03-30T03:03:24.245Z,53.42
2023-03-30T03:05:55.935Z,53.81
2023-03-30T03:08:24.755Z,53.99
2023-03-30T03:10:51.725Z,53.99
2023-03-30T03:13:20.542Z,54.26
2023-03-30T03:15:49.340Z,53.79
2023-03-30T03:18:15.654Z,53.89
2023-03-30T03:20:42.580Z,54.32
2023-03-30T03:23:08.947Z,53.79
2023-03-30T03:25:36.281Z,53.79
2023-03-30T03:28:02.624Z,53.99
2023-03-30T03:30:29.032Z,54.18
2023-03-30T03:32:56.019Z,54.56
2023-03-30T03:35:22.463Z,55.39
2023-03-30T03:37:48.828Z,55.64
2023-03-30T03:40:15.575Z,55.39
2023-03-30T03:42:42.382Z,55.58
2023-03-30T03:45:09.266Z,55.90
2023-03-30T03:47:35.831Z,56.91
2023-03-30T03:50:04.079Z,57.40
2023-03-30T03:52:31.167Z,57.32
2023-03-30T03:54:57.545Z,57.00
2023-03-30T03:57:24.326Z,56.39
2023-03-30T03:59:52.915Z,57.34
2023-03-30T04:02:21.248Z,56.84
2023-03-30T04:04:50.218Z,57.12
2023-03-30T04:07:16.728Z,57.53
2023-03-30T04:09:43.067Z,57.24
2023-03-30T04:12:09.433Z,56.48
2023-03-30T04:14:35.881Z,56.23
2023-03-30T04:17:02.572Z,56.94
2023-03-30T04:19:31.343Z,57.02
2023-03-30T04:21:58.900Z,56.43
2023-03-30T04:24:27.875Z,56.22
2023-03-30T04:26:54.174Z,55.96
2023-03-30T04:29:23.388Z,56.41
2023-03-30T04:31:51.001Z,56.85
2023-03-30T04:34:21.844Z,57.34
2023-03-30T04:36:57.370Z,56.88
2023-03-30T04:39:31.623Z,56.70
2023-03-30T04:41:57.962Z,57.06
2023-03-30T04:44:24.515Z,56.45
2023-03-30T04:46:50.925Z,56.27
2023-03-30T04:49:17.293Z,56.46
2023-03-30T04:51:43.594Z,56.55
2023-03-30T04:54:10.001Z,56.99
2023-03-30T04:56:36.362Z,56.21
2023-03-30T04:59:02.711Z,56.40
2023-03-30T05:01:29.048Z,55.97
2023-03-30T05:04:17.012Z,55.94
2023-03-30T05:06:44.067Z,56.57
2023-03-30T05:09:10.741Z,56.66
2023-03-30T05:11:37.107Z,57.16
2023-03-30T05:14:03.535Z,56.69
2023-03-30T05:16:29.900Z,56.55
2023-03-30T05:18:56.633Z,57.41
2023-03-30T05:21:23.062Z,57.49
2023-03-30T05:23:49.481Z,57.01
2023-03-30T05:26:16.241Z,56.70
2023-03-30T05:28:43.049Z,56.66
2023-03-30T05:31:09.467Z,56.83
2023-03-30T05:33:35.871Z,57.31
2023-03-30T05:36:02.235Z,56.64
2023-03-30T05:38:28.572Z,57.56
2023-03-30T05:40:55.054Z,56.94
2023-03-30T05:43:21.454Z,56.60
2023-03-30T05:45:48.248Z,56.89
2023-03-30T05:48:14.646Z,58.35
2023-03-30T05:50:42.751Z,58.30
2023-03-30T05:53:09.209Z,59.20
2023-03-30T05:55:35.593Z,59.36
2023-03-30T05:58:02.729Z,59.70
2023-03-30T06:00:29.186Z,59.71
2023-03-30T06:02:55.681Z,60.53
2023-03-30T06:05:22.281Z,60.63
2023-03-30T06:07:49.550Z,60.69
2023-03-30T06:10:16.253Z,60.65
2023-03-30T06:12:42.739Z,60.81
2023-03-30T06:15:12.151Z,60.53
2023-03-30T06:17:38.581Z,60.63
2023-03-30T06:20:11.299Z,60.14
2023-03-30T06:22:38.289Z,60.24
2023-03-30T06:25:05.860Z,59.89
2023-03-30T06:27:32.934Z,59.59
2023-03-30T06:29:59.357Z,59.82
2023-03-30T06:32:25.763Z,60.30
2023-03-30T06:34:53.070Z,59.93
2023-03-30T06:37:20.500Z,59.62
2023-03-30T06:39:47.237Z,58.85
2023-03-30T06:42:13.676Z,58.77
2023-03-30T06:44:40.020Z,58.72
2023-03-30T06:47:07.601Z,58.77
2023-03-30T06:49:34.061Z,59.64
2023-03-30T06:52:04.395Z,59.36
2023-03-30T06:54:31.975Z,60.06
2023-03-30T06:56:58.435Z,59.84
2023-03-30T06:59:24.860Z,58.49
2023-03-30T07:01:51.707Z,58.58
2023-03-30T07:04:18.325Z,59.44
2023-03-30T07:06:44.705Z,59.37
2023-03-30T07:09:12.817Z,61.25
2023-03-30T07:11:39.137Z,61.67
2023-03-30T07:14:05.953Z,62.44
2023-03-30T07:16:32.348Z,63.19
2023-03-30T07:18:58.875Z,61.99
2023-03-30T07:21:25.501Z,63.10
2023-03-30T07:23:51.873Z,67.91
2023-03-30T07:26:18.309Z,69.54
2023-03-30T07:28:46.283Z,70.78
2023-03-30T07:31:14.266Z,71.77
2023-03-30T07:33:41.061Z,73.55
2023-03-30T07:36:08.537Z,73.84
2023-03-30T07:38:35.069Z,74.07
2023-03-30T07:41:01.790Z,74.09
2023-03-30T07:43:28.444Z,73.78
2023-03-30T07:45:55.007Z,74.53
2023-03-30T07:48:21.438Z,74.95
2023-03-30T07:50:47.931Z,74.98
2023-03-30T07:53:14.316Z,75.72
2023-03-30T07:55:41.269Z,74.93
2023-03-30T07:58:07.870Z,74.36
2023-03-30T08:00:34.243Z,72.24
2023-03-30T08:03:00.677Z,73.35
2023-03-30T08:05:27.099Z,73.41
2023-03-30T08:07:53.485Z,72.41
2023-03-30T08:10:19.985Z,70.52
2023-03-30T08:12:46.395Z,70.25
2023-03-30T08:15:12.802Z,68.83
2023-03-30T08:17:39.321Z,68.02
2023-03-30T08:20:10.737Z,67.67
2023-03-30T08:22:37.172Z,67.52
2023-03-30T08:25:03.684Z,67.90
2023-03-30T08:27:30.219Z,67.43
2023-03-30T08:29:56.628Z,66.75
2023-03-30T08:32:23.697Z,65.61
2023-03-30T08:34:50.326Z,65.72
2023-03-30T08:37:16.732Z,65.77
2023-03-30T08:39:43.510Z,66.05
2023-03-30T08:42:09.955Z,64.65
2023-03-30T08:44:42.001Z,64.07
2023-03-30T08:47:16.664Z,63.62
2023-03-30T08:49:52.840Z,69.97
2023-03-30T08:52:23.954Z,79.46
2023-03-30T08:54:52.086Z,83.32
2023-03-30T08:57:38.002Z,83.22
2023-03-30T09:00:12.324Z,83.30
2023-03-30T09:02:44.646Z,82.59
2023-03-30T09:05:22.994Z,83.75
2023-03-30T09:07:52.125Z,82.68
2023-03-30T09:10:19.806Z,81.36
2023-03-30T09:12:56.775Z,80.03
2023-03-30T09:15:33.416Z,80.16
2023-03-30T09:18:17.033Z,78.32
2023-03-30T09:20:46.099Z,78.31
2023-03-30T09:23:15.536Z,76.74
2023-03-30T09:25:47.322Z,77.54
2023-03-30T09:28:21.142Z,77.75
2023-03-30T09:31:13.434Z,77.04
2023-03-30T09:33:53.180Z,77.98
2023-03-30T09:36:28.284Z,77.01
2023-03-30T09:38:54.720Z,77.14
2023-03-30T09:42:05.594Z,76.94
2023-03-30T09:44:46.184Z,76.15
2023-03-30T09:47:24.793Z,77.12
2023-03-30T09:50:03.617Z,76.14
2023-03-30T09:52:36.946Z,77.04
2023-03-30T09:55:27.109Z,76.56
2023-03-30T09:57:54.598Z,77.32
2023-03-30T10:00:31.262Z,77.37
2023-03-30T10:03:05.286Z,77.23
2023-03-30T10:05:34.216Z,77.96
2023-03-30T10:08:16.625Z,75.78
2023-03-30T10:10:43.038Z,74.68
2023-03-30T10:13:14.361Z,75.64
2023-03-30T10:15:46.297Z,73.79
2023-03-30T10:18:19.317Z,72.51
2023-03-30T10:21:15.168Z,72.01
2023-03-30T10:23:44.788Z,71.65
2023-03-30T10:26:20.610Z,69.91
2023-03-30T10:29:02.093Z,68.56
2023-03-30T10:31:28.760Z,67.99
2023-03-30T10:33:58.048Z,67.18
2023-03-30T10:36:30.833Z,66.90
2023-03-30T10:39:20.367Z,65.17
2023-03-30T10:41:47.530Z,64.65
2023-03-30T10:44:35.764Z,62.74
2023-03-30T10:47:28.526Z,60.62
2023-03-30T10:50:01.277Z,55.97
2023-03-30T10:53:12.288Z,52.75
2023-03-30T10:55:57.282Z,53.06
2023-03-30T10:58:43.205Z,49.36
2023-03-30T11:01:32.272Z,48.75
2023-03-30T11:04:26.506Z,49.03
2023-03-30T11:06:56.783Z,47.81
2023-03-30T11:09:30.102Z,49.98
2023-03-30T11:12:02.584Z,52.21
2023-03-30T11:14:44.046Z,50.01
2023-03-30T11:17:22.770Z,50.19
2023-03-30T11:19:55.359Z,52.43
2023-03-30T11:22:43.484Z,51.08
2023-03-30T11:25:20.857Z,52.90
2023-03-30T11:28:06.655Z,49.01
2023-03-30T11:30:36.163Z,52.25
2023-03-30T11:33:26.880Z,60.99
2023-03-30T11:36:18.785Z,69.09
2023-03-30T11:38:55.638Z,70.58
2023-03-30T11:41:31.759Z,75.96
2023-03-30T11:43:58.186Z,86.11
2023-03-30T11:46:34.276Z,89.94
2023-03-30T11:49:33.902Z,87.58
2023-03-30T11:52:09.313Z,85.70
2023-03-30T11:55:05.530Z,84.35
2023-03-30T11:57:38.862Z,84.50
2023-03-30T12:00:11.076Z,85.23
2023-03-30T12:02:54.713Z,86.64
2023-03-30T12:05:34.274Z,85.67
2023-03-30T12:08:22.007Z,83.84
2023-03-30T12:10:55.673Z,84.17
2023-03-30T12:13:22.070Z,84.07
2023-03-30T12:15:57.709Z,85.11
2023-03-30T12:18:44.099Z,81.18
2023-03-30T12:21:13.504Z,76.79
2023-03-30T12:23:49.697Z,71.86
2023-03-30T12:26:31.245Z,68.78
2023-03-30T12:32:04.320Z,65.02
2023-03-30T12:34:36.842Z,60.85
2023-03-30T12:37:18.229Z,63.72
2023-03-30T12:39:49.403Z,63.29
2023-03-30T12:42:26.432Z,62.27
2023-03-30T12:45:27.081Z,61.17
2023-03-30T12:47:59.625Z,59.09
2023-03-30T12:51:02.503Z,58.75
2023-03-30T12:54:08.236Z,60.41
2023-03-30T12:57:03.151Z,59.65
2023-03-30T13:00:09.605Z,62.55
2023-03-30T13:02:39.014Z,60.55
2023-03-30T13:05:18.719Z,58.09
2023-03-30T13:07:46.103Z,58.82
2023-03-30T13:10:30.945Z,57.15
2023-03-30T13:12:59.748Z,57.73
2023-03-30T13:15:49.547Z,57.76
2023-03-30T13:18:15.952Z,57.06
2023-03-30T13:20:48.216Z,55.84
2023-03-30T13:23:14.491Z,57.50
2023-03-30T13:25:52.541Z,63.22
2023-03-30T13:28:55.957Z,70.96
2023-03-30T13:31:31.161Z,71.36
2023-03-30T13:34:18.357Z,73.41
2023-03-30T13:37:04.506Z,74.29
2023-03-30T13:39:35.317Z,68.88
2023-03-30T13:42:22.139Z,68.13
2023-03-30T13:45:12.103Z,67.47
2023-03-30T13:47:57.542Z,65.72
2023-03-30T13:50:34.172Z,65.39
2023-03-30T13:53:07.499Z,63.66
2023-03-30T13:55:49.377Z,65.62
2023-03-30T13:58:23.173Z,69.05
2023-03-30T14:00:53.510Z,79.46
2023-03-30T14:03:31.938Z,83.33
2023-03-30T14:06:03.767Z,83.67
2023-03-30T14:08:34.330Z,83.52
2023-03-30T14:11:03.641Z,83.71
2023-03-30T14:13:30.489Z,82.78
2023-03-30T14:15:57.020Z,83.31
2023-03-30T14:18:25.325Z,82.92
2023-03-30T14:21:00.651Z,78.33
2023-03-30T14:23:39.346Z,76.31
2023-03-30T14:26:17.053Z,74.85
2023-03-30T14:28:44.033Z,71.94
2023-03-30T14:31:14.619Z,74.06
2023-03-30T14:33:41.346Z,72.18
2023-03-30T14:36:11.611Z,74.62
2023-03-30T14:38:41.138Z,72.52
2023-03-30T14:41:12.073Z,72.33
2023-03-30T14:43:40.689Z,70.55
2023-03-30T14:46:11.618Z,71.21
2023-03-30T14:48:41.770Z,66.60
2023-03-30T14:51:23.653Z,67.26
2023-03-30T14:53:52.231Z,69.35
2023-03-30T14:56:19.694Z,69.24
2023-03-30T14:58:48.102Z,71.40
2023-03-30T15:01:18.541Z,77.88
2023-03-30T15:03:46.828Z,85.46
2023-03-30T15:06:19.696Z,85.82
2023-03-30T15:08:47.429Z,89.96
2023-03-30T15:11:22.605Z,89.79
2023-03-30T15:13:52.907Z,88.37
2023-03-30T15:16:27.294Z,88.11
2023-03-30T15:19:00.396Z,88.36
2023-03-30T15:21:31.485Z,88.51
2023-03-30T15:24:00.241Z,87.14
2023-03-30T15:26:29.931Z,86.38
2023-03-30T15:29:00.917Z,85.41
2023-03-30T15:31:28.671Z,85.34
2023-03-30T15:33:58.994Z,84.38
2023-03-30T15:36:36.751Z,85.91
2023-03-30T15:39:18.736Z,82.43
2023-03-30T15:41:58.598Z,81.07
2023-03-30T15:44:25.023Z,82.33
2023-03-30T15:46:56.141Z,83.63
2023-03-30T15:49:30.681Z,83.91
2023-03-30T15:52:01.923Z,83.28
2023-03-30T15:54:34.481Z,82.80
2023-03-30T15:57:10.983Z,81.24
2023-03-30T15:59:43.283Z,76.89
2023-03-30T16:02:37.589Z,75.41
2023-03-30T16:05:07.684Z,73.87
2023-03-30T16:07:36.014Z,76.45
2023-03-30T16:10:02.400Z,78.88
2023-03-30T16:12:30.980Z,77.75
2023-03-30T16:14:58.147Z,80.25
2023-03-30T16:17:24.628Z,81.56
2023-03-30T16:19:51.085Z,80.93
2023-03-30T16:22:17.512Z,82.43
2023-03-30T16:24:43.989Z,79.41
2023-03-30T16:27:11.838Z,77.26
2023-03-30T16:29:38.438Z,76.50
2023-03-30T16:32:05.376Z,75.98
2023-03-30T16:34:31.914Z,77.32
2023-03-30T16:36:58.310Z,77.85
2023-03-30T16:39:27.746Z,79.62
2023-03-30T16:41:55.462Z,80.12
2023-03-30T16:44:23.938Z,80.92
2023-03-30T16:46:51.535Z,81.04
2023-03-30T16:49:23.268Z,81.15
2023-03-30T16:51:51.338Z,80.86
2023-03-30T16:54:30.525Z,80.47
2023-03-30T16:56:58.204Z,80.57
2023-03-30T16:59:26.795Z,81.24
2023-03-30T17:01:53.211Z,81.48
2023-03-30T17:04:19.791Z,81.45
2023-03-30T17:06:46.280Z,81.72
2023-03-30T17:09:16.916Z,81.96
2023-03-30T17:11:44.237Z,82.32
2023-03-30T17:14:11.108Z,83.64
2023-03-30T17:16:37.519Z,83.11
2023-03-30T17:19:04.605Z,83.05
2023-03-30T17:21:31.321Z,82.11
2023-03-30T17:23:57.838Z,81.63
2023-03-30T17:26:24.412Z,81.61
2023-03-30T17:28:52.119Z,82.68
2023-03-30T17:31:20.951Z,82.10
2023-03-30T17:33:48.349Z,81.40
2023-03-30T17:36:20.506Z,80.17
2023-03-30T17:38:47.540Z,80.46
2023-03-30T17:41:15.546Z,81.06
2023-03-30T17:43:43.315Z,80.30
2023-03-30T17:46:12.985Z,80.06
2023-03-30T17:48:39.467Z,80.52
2023-03-30T17:51:06.379Z,79.19
2023-03-30T17:53:33.662Z,78.93
2023-03-30T17:56:00.622Z,77.63
2023-03-30T17:58:32.652Z,79.09
2023-03-30T18:01:00.896Z,78.37
2023-03-30T18:03:29.304Z,77.59
2023-03-30T18:05:57.669Z,77.78
2023-03-30T18:08:25.579Z,77.32
2023-03-30T18:10:53.993Z,76.94
2023-03-30T18:13:21.569Z,77.20
2023-03-30T18:15:50.360Z,76.51
2023-03-30T18:18:22.674Z,75.89
2023-03-30T18:20:50.570Z,76.92
2023-03-30T18:23:17.231Z,76.28
2023-03-30T18:25:43.792Z,76.07
2023-03-30T18:28:24.935Z,75.64
2023-03-30T18:30:57.476Z,75.88
2023-03-30T18:33:24.767Z,75.32
2023-03-30T18:35:52.490Z,74.49
2023-03-30T18:38:20.636Z,75.12
2023-03-30T18:40:53.453Z,74.28
2023-03-30T18:43:19.818Z,73.32
2023-03-30T18:45:48.465Z,74.24
2023-03-30T18:48:17.934Z,73.73
2023-03-30T18:50:46.269Z,75.23
2023-03-30T18:53:18.656Z,75.12
2023-03-30T18:55:47.535Z,74.08
2023-03-30T18:58:16.669Z,74.00
2023-03-30T19:00:43.159Z,74.41
2023-03-30T19:03:10.602Z,74.08
2023-03-30T19:05:39.030Z,74.50
2023-03-30T19:08:05.547Z,74.53
2023-03-30T19:10:36.160Z,74.83
2023-03-30T19:13:02.528Z,73.62
2023-03-30T19:15:33.916Z,73.79
2023-03-30T19:18:01.610Z,73.05
2023-03-30T19:20:30.339Z,73.23
2023-03-30T19:22:56.759Z,72.85
2023-03-30T19:25:25.766Z,72.52
2023-03-30T19:28:02.664Z,72.36
2023-03-30T19:30:32.335Z,72.30
2023-03-30T19:33:02.129Z,72.20
2023-03-30T19:35:29.451Z,72.40
2023-03-30T19:37:56.297Z,73.09
2023-03-30T19:40:23.715Z,73.58
2023-03-30T19:42:50.715Z,73.47
2023-03-30T19:45:19.548Z,73.27
2023-03-30T19:47:46.052Z,73.12
2023-03-30T19:50:17.714Z,73.21
2023-03-30T19:52:48.389Z,72.78
2023-03-30T19:55:14.791Z,72.04
2023-03-30T19:57:41.176Z,73.09
2023-03-30T20:00:12.746Z,72.29
2023-03-30T20:02:40.050Z,72.36
2023-03-30T20:05:09.909Z,73.71
2023-03-30T20:07:37.505Z,73.79
2023-03-30T20:10:06.249Z,72.91
2023-03-30T20:12:33.134Z,72.57
2023-03-30T20:15:00.541Z,72.88
2023-03-30T20:17:29.858Z,72.53
2023-03-30T20:19:58.018Z,72.00
2023-03-30T20:22:25.266Z,72.23
2023-03-30T20:24:51.686Z,71.57
2023-03-30T20:27:18.030Z,71.69
2023-03-30T20:29:44.388Z,72.56
2023-03-30T20:32:10.833Z,71.90
2023-03-30T20:34:37.168Z,71.40
2023-03-30T20:37:03.514Z,72.52
2023-03-30T20:39:29.890Z,72.98
2023-03-30T20:42:01.928Z,72.35
2023-03-30T20:44:31.686Z,71.98
2023-03-30T20:46:59.195Z,72.48
2023-03-30T20:49:26.387Z,73.44
2023-03-30T20:51:53.177Z,73.24
2023-03-30T20:54:20.588Z,72.80
2023-03-30T20:56:47.087Z,72.42
2023-03-30T20:59:13.478Z,72.15
2023-03-30T21:01:43.346Z,72.34
2023-03-30T21:04:09.805Z,72.79
2023-03-30T21:06:36.617Z,72.30
2023-03-30T21:09:05.813Z,72.59
2023-03-30T21:11:38.570Z,72.46
2023-03-30T21:14:06.549Z,72.35
2023-03-30T21:16:33.468Z,72.35
2023-03-30T21:18:59.887Z,72.65
2023-03-30T21:21:26.973Z,73.20
2023-03-30T21:23:53.295Z,72.80
2023-03-30T21:26:19.668Z,73.02
2023-03-30T21:28:46.111Z,72.63
2023-03-30T21:31:14.224Z,72.54
2023-03-30T21:33:41.201Z,72.77
2023-03-30T21:36:08.307Z,73.11
2023-03-30T21:38:35.612Z,73.60
2023-03-30T21:41:16.878Z,74.27
2023-03-30T21:43:48.326Z,74.22
2023-03-30T21:46:18.104Z,73.30
2023-03-30T21:48:45.816Z,73.62
2023-03-30T21:51:20.851Z,73.03
2023-03-30T21:53:50.573Z,73.84
2023-03-30T21:56:19.076Z,73.60
2023-03-30T21:58:45.752Z,73.68
2023-03-30T22:01:13.041Z,73.56
2023-03-30T22:03:42.041Z,74.20
2023-03-30T22:06:10.510Z,74.08
2023-03-30T22:08:37.472Z,74.41
2023-03-30T22:11:07.449Z,74.44
2023-03-30T22:13:34.138Z,74.03
2023-03-30T22:16:00.679Z,74.05
2023-03-30T22:18:27.946Z,74.12
2023-03-30T22:20:57.724Z,74.47
2023-03-30T22:23:24.147Z,74.58
2023-03-30T22:25:51.238Z,74.52
2023-03-30T22:28:17.701Z,74.24
2023-03-30T22:30:44.690Z,74.18
2023-03-30T22:33:12.024Z,74.07
2023-03-30T22:35:40.955Z,73.83
2023-03-30T22:38:08.434Z,73.79
2023-03-30T22:40:35.918Z,74.13
2023-03-30T22:43:03.297Z,73.61
2023-03-30T22:45:30.547Z,73.80
2023-03-30T22:47:58.326Z,73.98
2023-03-30T22:50:26.269Z,73.69
2023-03-30T22:52:52.703Z,73.64
2023-03-30T22:55:19.741Z,73.40
2023-03-30T22:57:46.905Z,73.67
2023-03-30T23:00:16.999Z,73.31
2023-03-30T23:02:43.961Z,73.20
2023-03-30T23:05:14.358Z,72.99
2023-03-30T23:07:44.197Z,73.02
2023-03-30T23:10:14.646Z,73.13
2023-03-30T23:12:42.096Z,73.08
2023-03-30T23:15:10.508Z,72.83
2023-03-30T23:17:37.215Z,72.88
2023-03-30T23:20:05.351Z,72.68
2023-03-30T23:22:31.860Z,73.14
2023-03-30T23:24:58.751Z,72.74
2023-03-30T23:27:25.469Z,73.07
2023-03-30T23:29:52.737Z,74.19
2023-03-30T23:32:19.439Z,76.93
2023-03-30T23:34:46.490Z,77.98
2023-03-30T23:37:12.950Z,78.01
2023-03-30T23:39:39.378Z,78.05
2023-03-30T23:42:06.932Z,77.73
2023-03-30T23:44:33.335Z,78.05
2023-03-30T23:47:00.621Z,78.03
2023-03-30T23:49:27.186Z,77.66
2023-03-30T23:51:53.556Z,77.56
2023-03-30T23:54:19.987Z,77.14
2023-03-30T23:56:46.957Z,77.17
2023-03-30T23:59:13.495Z,77.10
